createdAt,value
2023-02-14T00:01:55.720Z,37.75
2023-02-14T00:04:23.557Z,36.38
2023-02-14T00:06:51.320Z,35.05
2023-02-14T00:09:20.925Z,37.00
2023-02-14T00:11:51.754Z,36.75
2023-02-14T00:14:38.208Z,33.05
2023-02-14T00:17:06.029Z,35.33
2023-02-14T00:19:36.098Z,35.40
2023-02-14T00:22:05.278Z,35.25
2023-02-14T00:24:33.489Z,33.60
2023-02-14T00:27:01.341Z,33.88
2023-02-14T00:29:32.423Z,33.80
2023-02-14T00:32:02.822Z,32.40
2023-02-14T00:34:30.779Z,32.53
2023-02-14T00:37:01.853Z,34.17
2023-02-14T00:39:29.633Z,32.78
2023-02-14T00:41:57.642Z,32.17
2023-02-14T00:44:25.727Z,33.67
2023-02-14T00:46:56.380Z,35.72
2023-02-14T00:49:24.951Z,33.42
2023-02-14T00:51:53.016Z,34.97
2023-02-14T00:54:23.971Z,34.90
2023-02-14T00:56:51.877Z,35.53
2023-02-14T00:59:22.748Z,34.53
2023-02-14T01:01:56.542Z,33.88
2023-02-14T01:04:24.616Z,32.70
2023-02-14T01:06:53.992Z,31.98
2023-02-14T01:09:22.167Z,30.77
2023-02-14T01:11:50.155Z,32.20
2023-02-14T01:14:18.047Z,35.38
2023-02-14T01:16:46.859Z,34.47
2023-02-14T01:19:14.863Z,32.42
2023-02-14T01:21:44.926Z,35.47
2023-02-14T01:24:13.483Z,35.42
2023-02-14T01:26:43.952Z,35.80
2023-02-14T01:29:11.770Z,36.97
2023-02-14T01:31:48.714Z,35.40
2023-02-14T01:34:17.394Z,35.08
2023-02-14T01:36:47.854Z,35.35
2023-02-14T01:39:19.903Z,34.42
2023-02-14T01:41:48.858Z,34.65
2023-02-14T01:44:17.569Z,33.33
2023-02-14T01:46:47.757Z,34.53
2023-02-14T01:49:40.165Z,32.35
2023-02-14T01:52:20.114Z,35.00
2023-02-14T01:55:01.234Z,33.83
2023-02-14T01:57:43.369Z,33.20
2023-02-14T02:00:30.106Z,34.03
2023-02-14T02:03:00.015Z,33.28
2023-02-14T02:05:28.133Z,29.80
2023-02-14T02:08:00.202Z,34.95
2023-02-14T02:10:29.603Z,35.35
2023-02-14T02:13:03.684Z,34.90
2023-02-14T02:15:35.987Z,34.38
2023-02-14T02:18:26.792Z,33.75
2023-02-14T02:21:16.637Z,33.35
2023-02-14T02:24:10.091Z,37.53
2023-02-14T02:26:40.633Z,34.38
2023-02-14T02:29:27.065Z,34.28
2023-02-14T02:32:10.398Z,36.13
2023-02-14T02:34:58.130Z,34.78
2023-02-14T02:37:52.385Z,34.75
2023-02-14T02:40:44.879Z,34.17
2023-02-14T02:43:31.167Z,34.05
2023-02-14T02:46:23.024Z,31.80
2023-02-14T02:49:12.527Z,34.50
2023-02-14T02:52:14.657Z,32.78
2023-02-14T02:54:59.980Z,34.83
2023-02-14T02:57:38.884Z,34.13
2023-02-14T03:00:09.072Z,34.15
2023-02-14T03:03:03.598Z,33.40
2023-02-14T03:05:34.287Z,37.45
2023-02-14T03:08:03.714Z,34.50
2023-02-14T03:10:35.780Z,35.75
2023-02-14T03:13:44.621Z,36.10
2023-02-14T03:16:40.576Z,32.53
2023-02-14T03:19:23.153Z,33.75
2023-02-14T03:22:14.660Z,32.55
2023-02-14T03:24:53.018Z,31.98
2023-02-14T03:27:50.101Z,32.92
2023-02-14T03:30:42.045Z,32.40
2023-02-14T03:33:37.284Z,33.22
2023-02-14T03:36:15.037Z,33.28
2023-02-14T03:39:05.628Z,33.92
2023-02-14T03:41:43.646Z,31.10
2023-02-14T03:44:14.616Z,36.47
2023-02-14T03:46:52.917Z,33.67
2023-02-14T03:49:29.695Z,34.72
2023-02-14T03:52:01.481Z,33.58
2023-02-14T03:54:32.877Z,33.65
2023-02-14T03:57:21.954Z,32.67
2023-02-14T03:59:50.839Z,32.72
2023-02-14T04:02:41.234Z,37.00
2023-02-14T04:05:23.300Z,36.53
2023-02-14T04:07:53.703Z,36.97
2023-02-14T04:10:22.760Z,35.88
2023-02-14T04:12:50.988Z,36.83
2023-02-14T04:15:19.283Z,38.20
2023-02-14T04:18:05.978Z,38.60
2023-02-14T04:20:34.233Z,36.42
2023-02-14T04:23:03.511Z,40.33
2023-02-14T04:25:31.775Z,37.65
2023-02-14T04:27:59.568Z,42.85
2023-02-14T04:30:27.374Z,37.17
2023-02-14T04:32:55.249Z,39.67
2023-02-14T04:35:23.051Z,36.38
2023-02-14T04:37:50.699Z,39.10
2023-02-14T04:40:18.449Z,36.53
2023-02-14T04:42:47.095Z,37.40
2023-02-14T04:45:15.067Z,36.15
2023-02-14T04:47:43.302Z,36.10
2023-02-14T04:50:11.248Z,35.42
2023-02-14T04:52:39.136Z,38.30
2023-02-14T04:55:07.263Z,38.13
2023-02-14T04:57:35.016Z,39.78
2023-02-14T05:00:03.561Z,34.63
2023-02-14T05:02:31.966Z,37.15
2023-02-14T05:04:59.616Z,38.13
2023-02-14T05:07:27.462Z,40.08
2023-02-14T05:09:55.183Z,37.50
2023-02-14T05:12:22.803Z,36.63
2023-02-14T05:14:50.476Z,37.63
2023-02-14T05:17:18.116Z,38.10
2023-02-14T05:19:45.893Z,38.85
2023-02-14T05:22:13.671Z,39.15
2023-02-14T05:24:41.308Z,38.33
2023-02-14T05:27:11.679Z,39.33
2023-02-14T05:29:39.329Z,39.38
2023-02-14T05:32:07.111Z,38.47
2023-02-14T05:34:34.951Z,39.17
2023-02-14T05:37:03.642Z,38.58
2023-02-14T05:39:31.256Z,37.58
2023-02-14T05:41:59.486Z,39.30
2023-02-14T05:44:27.184Z,42.58
2023-02-14T05:46:55.340Z,39.00
2023-02-14T05:49:22.957Z,41.72
2023-02-14T05:51:50.629Z,40.92
2023-02-14T05:54:18.239Z,40.33
2023-02-14T05:56:45.916Z,38.33
2023-02-14T05:59:14.709Z,40.50
2023-02-14T06:01:42.286Z,45.28
2023-02-14T06:04:09.909Z,46.08
2023-02-14T06:06:37.592Z,40.58
2023-02-14T06:09:05.546Z,40.47
2023-02-14T06:11:33.258Z,40.28
2023-02-14T06:14:04.178Z,42.38
2023-02-14T06:16:32.110Z,40.38
2023-02-14T06:19:00.323Z,42.08
2023-02-14T06:21:28.143Z,37.95
2023-02-14T06:23:55.886Z,38.85
2023-02-14T06:26:27.881Z,39.58
2023-02-14T06:28:56.296Z,39.15
2023-02-14T06:31:27.835Z,37.70
2023-02-14T06:33:55.922Z,38.70
2023-02-14T06:36:24.639Z,39.15
2023-02-14T06:38:52.608Z,38.50
2023-02-14T06:41:20.317Z,40.90
2023-02-14T06:43:50.743Z,44.78
2023-02-14T06:46:19.149Z,39.10
2023-02-14T06:48:47.407Z,40.75
2023-02-14T06:51:15.237Z,43.33
2023-02-14T06:53:42.977Z,45.33
2023-02-14T06:56:10.741Z,43.33
2023-02-14T06:58:38.419Z,42.05
2023-02-14T07:01:06.062Z,42.15
2023-02-14T07:03:33.685Z,39.20
2023-02-14T07:06:01.483Z,39.53
2023-02-14T07:08:29.242Z,40.95
2023-02-14T07:10:58.330Z,40.38
2023-02-14T07:13:26.370Z,41.88
2023-02-14T07:15:54.124Z,40.58
2023-02-14T07:18:21.796Z,38.92
2023-02-14T07:20:52.436Z,39.75
2023-02-14T07:25:47.639Z,38.15
2023-02-14T07:28:15.359Z,43.80
2023-02-14T07:30:43.007Z,41.42
2023-02-14T07:33:10.783Z,39.10
2023-02-14T07:35:38.511Z,40.83
2023-02-14T07:38:06.249Z,38.42
2023-02-14T07:40:34.037Z,40.83
2023-02-14T07:43:02.223Z,40.25
2023-02-14T07:45:30.135Z,38.70
2023-02-14T07:48:02.039Z,40.92
2023-02-14T07:50:30.445Z,38.08
2023-02-14T07:52:58.096Z,37.60
2023-02-14T07:55:25.840Z,40.38
2023-02-14T07:57:53.733Z,40.30
2023-02-14T08:00:24.430Z,39.72
2023-02-14T08:02:52.308Z,39.95
2023-02-14T08:05:20.425Z,44.65
2023-02-14T08:07:48.839Z,43.67
2023-02-14T08:10:16.860Z,46.70
2023-02-14T08:12:59.566Z,43.88
2023-02-14T08:15:53.322Z,42.33
2023-02-14T08:18:23.333Z,45.45
2023-02-14T08:20:51.213Z,44.10
2023-02-14T08:23:20.356Z,44.72
2023-02-14T08:25:52.539Z,42.20
2023-02-14T08:28:23.313Z,44.22
2023-02-14T08:30:51.444Z,46.45
2023-02-14T08:33:19.727Z,43.67
2023-02-14T08:35:47.558Z,39.30
2023-02-14T08:38:15.225Z,41.17
2023-02-14T08:40:43.344Z,40.13
2023-02-14T08:43:11.320Z,40.78
2023-02-14T08:45:39.577Z,38.45
2023-02-14T08:48:09.796Z,43.30
2023-02-14T08:50:38.550Z,41.65
2023-02-14T08:53:08.558Z,41.47
2023-02-14T08:55:37.996Z,39.83
2023-02-14T08:58:06.746Z,41.72
2023-02-14T09:00:34.544Z,43.88
2023-02-14T09:03:02.413Z,40.78
2023-02-14T09:05:30.230Z,40.38
2023-02-14T09:07:57.937Z,41.80
2023-02-14T09:10:26.105Z,38.85
2023-02-14T09:12:53.790Z,38.45
2023-02-14T09:15:21.435Z,43.80
2023-02-14T09:17:49.318Z,46.28
2023-02-14T09:20:17.117Z,48.78
2023-02-14T09:22:46.097Z,48.47
2023-02-14T09:25:15.053Z,45.15
2023-02-14T09:27:42.756Z,47.40
2023-02-14T09:30:11.178Z,46.78
2023-02-14T09:32:39.442Z,43.67
2023-02-14T09:35:25.929Z,46.58
2023-02-14T09:37:53.645Z,44.20
2023-02-14T09:40:22.100Z,45.22
2023-02-14T09:43:10.743Z,45.20
2023-02-14T09:45:39.502Z,44.85
2023-02-14T09:48:18.390Z,46.53
2023-02-14T09:51:31.806Z,44.30
2023-02-14T09:54:09.394Z,46.50
2023-02-14T09:57:18.090Z,41.88
2023-02-14T10:00:03.073Z,39.25
2023-02-14T10:02:59.568Z,43.15
2023-02-14T10:05:30.767Z,37.55
2023-02-14T10:08:27.747Z,38.90
2023-02-14T10:11:09.043Z,39.75
2023-02-14T10:13:49.410Z,38.67
2023-02-14T10:16:38.974Z,38.17
2023-02-14T10:19:21.423Z,38.63
2023-02-14T10:21:52.243Z,38.10
2023-02-14T10:24:23.576Z,35.33
2023-02-14T10:26:53.351Z,37.72
2023-02-14T10:29:22.095Z,36.33
2023-02-14T10:32:03.142Z,35.67
2023-02-14T10:34:47.993Z,32.50
2023-02-14T10:37:37.627Z,31.90
2023-02-14T10:40:17.555Z,33.83
2023-02-14T10:43:04.102Z,32.03
2023-02-14T10:45:47.442Z,31.35
2023-02-14T10:48:24.514Z,33.45
2023-02-14T10:51:33.979Z,27.85
2023-02-14T10:54:46.855Z,28.48
2023-02-14T10:57:29.400Z,28.55
2023-02-14T11:00:08.104Z,25.85
2023-02-14T11:02:43.130Z,28.33
2023-02-14T11:05:31.560Z,26.98
2023-02-14T11:08:00.130Z,26.02
2023-02-14T11:10:33.010Z,26.38
2023-02-14T11:13:00.803Z,23.52
2023-02-14T11:15:35.799Z,24.63
2023-02-14T11:18:24.037Z,23.38
2023-02-14T11:21:13.606Z,22.67
2023-02-14T11:23:48.405Z,20.27
2023-02-14T11:26:32.995Z,20.90
2023-02-14T11:29:10.244Z,17.98
2023-02-14T11:31:40.267Z,17.15
2023-02-14T11:34:28.919Z,16.20
2023-02-14T11:36:59.161Z,16.42
2023-02-14T11:39:35.942Z,16.30
2023-02-14T11:42:05.756Z,16.52
2023-02-14T11:44:36.902Z,16.65
2023-02-14T11:47:28.736Z,16.60
2023-02-14T11:50:02.411Z,15.05
2023-02-14T11:52:30.849Z,15.75
2023-02-14T11:54:59.382Z,15.43
2023-02-14T11:57:33.429Z,15.10
2023-02-14T12:00:04.973Z,15.50
2023-02-14T12:02:42.217Z,13.98
2023-02-14T12:08:03.479Z,13.05
2023-02-14T12:10:36.517Z,13.45
2023-02-14T12:13:10.394Z,14.52
2023-02-14T12:15:44.239Z,12.88
2023-02-14T12:18:37.056Z,12.40
2023-02-14T12:21:26.209Z,13.02
2023-02-14T12:24:06.456Z,12.60
2023-02-14T12:29:13.304Z,11.02
2023-02-14T12:31:43.522Z,11.70
2023-02-14T12:34:14.714Z,10.52
2023-02-14T12:37:21.769Z,10.13
2023-02-14T12:40:20.275Z,9.63
2023-02-14T12:42:59.947Z,9.30
2023-02-14T12:45:58.348Z,9.45
2023-02-14T12:48:34.995Z,8.30
2023-02-14T12:51:46.914Z,8.77
2023-02-14T12:54:31.897Z,8.10
2023-02-14T12:57:44.903Z,8.40
2023-02-14T13:04:18.178Z,9.68
2023-02-14T13:06:56.996Z,11.30
2023-02-14T13:09:59.271Z,8.40
2023-02-14T13:12:36.309Z,7.88
2023-02-14T13:15:07.136Z,6.22
2023-02-14T13:17:49.213Z,6.93
2023-02-14T13:20:37.036Z,6.05
2023-02-14T13:23:24.566Z,6.53
2023-02-14T13:26:04.001Z,6.47
2023-02-14T13:28:32.725Z,5.65
2023-02-14T13:31:02.039Z,5.75
2023-02-14T13:33:34.923Z,6.57
2023-02-14T13:36:08.271Z,7.38
2023-02-14T13:38:49.017Z,7.15
2023-02-14T13:41:18.161Z,6.43
2023-02-14T13:43:57.096Z,6.32
2023-02-14T13:46:35.558Z,6.20
2023-02-14T13:49:05.997Z,5.75
